Time;durP1;ratioP1;P1;durP2;ratioP2;P2;SDS_P1;SDS_P2;PMS_P1;PMS_P2;Temp;Humidity;BMP_temperature;BMP_pressure;BME280_temperature;BME280_humidity;BME280_pressure;Samples;Min_cycle;Max_cycle;Signal;HPM_P1;HPM_P2
2023/11/10 00:01:44;;;;;;;1.73;1.63;;;17.90;60.70;;;;;;4991538;28;20442;-79
2023/11/10 00:04:15;;;;;;;1.83;1.73;;;17.90;60.60;;;;;;4996720;28;20483;-79
2023/11/10 00:06:44;;;;;;;3.20;1.90;;;17.90;60.90;;;;;;4990638;28;20461;-80
2023/11/10 00:09:14;;;;;;;2.60;1.87;;;17.90;60.70;;;;;;4989307;28;20433;-79
2023/11/10 00:11:43;;;;;;;1.90;1.80;;;17.90;60.40;;;;;;5000849;28;20474;-79
2023/11/10 00:14:11;;;;;;;2.67;1.87;;;17.90;60.80;;;;;;4994410;28;20525;-78
2023/11/10 00:16:44;;;;;;;2.33;2.10;;;17.80;60.90;;;;;;4989101;28;20478;-80
2023/11/10 00:19:14;;;;;;;2.07;1.87;;;17.80;60.60;;;;;;4991936;28;20473;-79
2023/11/10 00:21:42;;;;;;;1.90;1.70;;;17.90;60.80;;;;;;4990633;28;20449;-80
2023/11/10 00:24:23;;;;;;;3.20;1.80;;;17.90;60.70;;;;;;4988636;28;20465;-79
2023/11/10 00:26:56;;;;;;;1.70;1.60;;;17.90;60.70;;;;;;4988400;28;20477;-80
2023/11/10 00:32:39;;;;;;;3.40;1.80;;;17.90;60.50;;;;;;4980006;28;20470;-80
2023/11/10 00:45:43;;;;;;;3.80;2.10;;;17.80;60.70;;;;;;4936593;28;20537;-81
2023/11/10 00:52:52;;;;;;;1.70;1.60;;;17.80;60.80;;;;;;4874139;29;20475;-81
2023/11/10 00:56:03;;;;;;;3.13;1.90;;;17.80;60.90;;;;;;4894213;29;20456;-80
2023/11/10 00:59:15;;;;;;;2.30;1.83;;;17.80;60.70;;;;;;4896991;29;20477;-80
2023/11/10 01:10:56;;;;;;;1.83;1.60;;;17.80;60.80;;;;;;4863922;29;20468;-81
2023/11/10 01:26:34;;;;;;;2.43;2.23;;;17.70;60.90;;;;;;4824273;29;20456;-82
2023/11/10 01:34:01;;;;;;;;;;;;;;;;;;;;;
2023/11/10 01:41:15;;;;;;;2.03;1.93;;;17.70;60.90;;;;;;4977360;28;20527;-81
2023/11/10 01:44:09;;;;;;;3.20;2.00;;;17.70;60.70;;;;;;5017100;28;20424;-80
2023/11/10 01:47:07;;;;;;;3.27;2.30;;;17.60;60.60;;;;;;5008115;28;20552;-80
2023/11/10 01:57:46;;;;;;;1.90;1.80;;;17.70;60.60;;;;;;4836225;29;20502;-80
2023/11/10 02:04:32;;;;;;;2.40;1.90;;;17.70;60.20;;;;;;4922688;29;20484;-80
2023/11/10 02:11:20;;;;;;;5.70;2.27;;;17.60;60.50;;;;;;4938661;29;20464;-79
2023/11/10 02:15:00;;;;;;;2.30;1.80;;;17.60;60.40;;;;;;4928157;29;20473;-80
2023/11/10 02:23:57;;;;;;;2.00;1.90;;;17.60;60.30;;;;;;4921355;29;20515;-78
2023/11/10 02:26:30;;;;;;;2.10;2.00;;;17.60;60.30;;;;;;4932705;29;20468;-80
2023/11/10 02:32:15;;;;;;;2.20;2.00;;;17.60;60.10;;;;;;4930291;29;20563;-79
2023/11/10 02:34:51;;;;;;;2.23;2.03;;;17.60;60.10;;;;;;4942370;29;20468;-80
2023/11/10 02:45:07;;;;;;;5.70;1.87;;;17.60;60.20;;;;;;5006228;28;20442;-80
2023/11/10 02:51:19;;;;;;;2.07;1.73;;;17.60;60.30;;;;;;5011037;28;20477;-80
2023/11/10 02:54:19;;;;;;;2.27;2.07;;;17.60;60.20;;;;;;5001873;28;20468;-80
2023/11/10 02:57:00;;;;;;;2.13;1.90;;;17.60;60.20;;;;;;4995428;28;20574;-80
2023/11/10 03:14:02;;;;;;;4.50;3.77;;;17.60;60.30;;;;;;4976551;28;20466;-79
2023/11/10 03:16:55;;;;;;;4.90;3.73;;;17.60;60.30;;;;;;5013523;28;20476;-80
2023/11/10 03:19:56;;;;;;;3.97;3.50;;;17.50;60.10;;;;;;5016749;28;20459;-80
2023/11/10 03:22:34;;;;;;;6.23;4.50;;;17.50;60.40;;;;;;5018539;28;20456;-80
2023/11/10 03:25:06;;;;;;;4.57;4.13;;;17.60;60.50;;;;;;5017934;28;20452;-80
2023/11/10 03:27:35;;;;;;;7.17;4.90;;;17.60;60.30;;;;;;5018158;23;20492;-82
2023/11/10 03:30:04;;;;;;;4.70;4.20;;;17.60;60.00;;;;;;5008189;28;20429;-82
2023/11/10 03:32:33;;;;;;;6.97;4.97;;;17.60;60.20;;;;;;5006791;28;20468;-81
2023/11/10 03:35:03;;;;;;;5.10;4.53;;;17.60;60.00;;;;;;5007587;28;20441;-83
2023/11/10 03:37:31;;;;;;;7.30;5.20;;;17.60;60.40;;;;;;5020552;28;20479;-82
2023/11/10 03:39:59;;;;;;;7.40;5.20;;;17.60;60.10;;;;;;5026417;28;20453;-81
2023/11/10 03:42:30;;;;;;;8.00;5.40;;;17.60;60.20;;;;;;5027822;28;20428;-81
2023/11/10 03:44:58;;;;;;;5.70;4.40;;;17.60;60.20;;;;;;5025499;28;20441;-86
2023/11/10 03:47:26;;;;;;;8.53;5.13;;;17.60;60.10;;;;;;5026328;28;20546;-84
2023/11/10 03:49:54;;;;;;;8.07;5.27;;;17.60;60.00;;;;;;5027255;28;20479;-82
2023/11/10 03:52:24;;;;;;;5.87;4.30;;;17.60;60.10;;;;;;5016958;28;20438;-82
2023/11/10 03:54:52;;;;;;;8.57;4.50;;;17.60;60.00;;;;;;5018076;28;20463;-83
2023/11/10 03:57:20;;;;;;;6.20;4.80;;;17.60;60.30;;;;;;5026596;28;20456;-83
2023/11/10 03:59:49;;;;;;;7.70;4.90;;;17.60;60.10;;;;;;5017226;28;20455;-81
2023/11/10 04:02:17;;;;;;;6.07;5.07;;;17.60;60.20;;;;;;5023554;28;20456;-81
2023/11/10 04:04:45;;;;;;;6.10;5.00;;;17.60;60.10;;;;;;5035022;28;20466;-81
2023/11/10 04:07:14;;;;;;;6.40;4.60;;;17.60;59.90;;;;;;5024112;28;20523;-80
2023/11/10 04:09:43;;;;;;;5.80;4.50;;;17.50;60.00;;;;;;5024378;28;20483;-80
2023/11/10 04:12:12;;;;;;;5.57;4.77;;;17.60;60.10;;;;;;5028849;28;20445;-80
2023/11/10 04:14:41;;;;;;;5.83;4.30;;;17.50;59.90;;;;;;5024822;28;20478;-79
2023/11/10 04:17:09;;;;;;;7.40;5.37;;;17.50;60.00;;;;;;5028465;28;20506;-79
2023/11/10 04:19:38;;;;;;;4.50;4.10;;;17.60;60.10;;;;;;5024203;28;20591;-81
2023/11/10 04:22:05;;;;;;;5.90;4.23;;;17.60;60.20;;;;;;5028461;28;20443;-80
2023/11/10 04:24:33;;;;;;;6.00;4.10;;;17.60;60.10;;;;;;5027721;28;20431;-80
2023/11/10 04:27:03;;;;;;;10.70;4.50;;;17.60;60.10;;;;;;5020682;28;20560;-80
2023/11/10 04:29:31;;;;;;;6.60;4.40;;;17.60;60.10;;;;;;5028896;28;20448;-81
2023/11/10 04:31:59;;;;;;;7.57;4.33;;;17.60;60.00;;;;;;5026856;28;20448;-81
2023/11/10 04:34:28;;;;;;;4.27;3.87;;;17.60;60.00;;;;;;5024832;28;20492;-81
2023/11/10 04:36:57;;;;;;;6.77;4.03;;;17.60;60.00;;;;;;5024224;28;20486;-80
2023/11/10 04:39:25;;;;;;;5.33;4.33;;;17.60;60.20;;;;;;5027434;28;20444;-81
2023/11/10 04:41:54;;;;;;;5.67;4.00;;;17.60;60.00;;;;;;5027043;28;20436;-81
2023/11/10 04:44:24;;;;;;;4.07;3.63;;;17.50;60.00;;;;;;5021993;28;20434;-80
2023/11/10 04:46:53;;;;;;;5.37;3.90;;;17.50;59.80;;;;;;5029096;28;20452;-81
2023/11/10 04:49:20;;;;;;;4.43;3.57;;;17.60;59.90;;;;;;5035287;28;20429;-81
2023/11/10 04:51:52;;;;;;;4.70;4.20;;;17.60;60.10;;;;;;5036141;28;20451;-82
2023/11/10 04:54:20;;;;;;;5.60;4.03;;;17.50;59.90;;;;;;5021987;28;20472;-82
2023/11/10 04:56:48;;;;;;;4.07;3.33;;;17.60;60.00;;;;;;5027307;28;20468;-80
2023/11/10 04:59:16;;;;;;;3.50;3.20;;;17.60;59.90;;;;;;5028517;28;20503;-82
2023/11/10 05:01:46;;;;;;;4.17;3.60;;;17.60;60.00;;;;;;5027748;28;20498;-81
2023/11/10 05:04:14;;;;;;;4.17;3.77;;;17.60;60.00;;;;;;5031240;28;20436;-81
2023/11/10 05:06:42;;;;;;;4.37;3.40;;;17.50;59.80;;;;;;5024675;28;20475;-82
2023/11/10 05:09:11;;;;;;;4.90;3.73;;;17.50;59.90;;;;;;5025131;28;20495;-82
2023/11/10 05:11:39;;;;;;;4.00;3.20;;;17.50;59.60;;;;;;5016673;28;20445;-81
2023/11/10 05:14:07;;;;;;;2.93;2.73;;;17.50;59.90;;;;;;5026365;28;20468;-81
2023/11/10 05:16:35;;;;;;;7.13;3.70;;;17.50;59.80;;;;;;5018716;28;20491;-80
2023/11/10 05:19:04;;;;;;;4.57;3.40;;;17.50;59.90;;;;;;5026992;28;20440;-81
2023/11/10 05:21:33;;;;;;;4.17;3.40;;;17.50;59.90;;;;;;5032010;28;20497;-81
2023/11/10 05:24:01;;;;;;;3.13;2.83;;;17.50;59.90;;;;;;5033128;28;20535;-82
2023/11/10 05:26:30;;;;;;;3.63;3.33;;;17.50;60.10;;;;;;5042596;28;20534;-82
2023/11/10 05:28:58;;;;;;;3.00;2.80;;;17.50;60.00;;;;;;5035659;28;20440;-82
2023/11/10 05:31:27;;;;;;;3.87;3.00;;;17.50;60.00;;;;;;5035563;28;20471;-85
2023/11/10 05:33:55;;;;;;;5.17;3.43;;;17.60;60.00;;;;;;5032904;28;21019;-85
2023/11/10 05:36:25;;;;;;;3.13;2.90;;;17.50;60.00;;;;;;5038364;28;20452;-82
2023/11/10 05:38:53;;;;;;;4.50;3.07;;;17.50;59.70;;;;;;5032998;28;20409;-85
2023/11/10 05:41:21;;;;;;;3.20;2.60;;;17.50;60.00;;;;;;5027593;28;20463;-81
2023/11/10 05:43:49;;;;;;;3.03;2.73;;;17.50;59.60;;;;;;5022903;28;20444;-81
2023/11/10 05:46:17;;;;;;;3.40;3.10;;;17.50;59.90;;;;;;5023526;28;20539;-81
2023/11/10 05:48:45;;;;;;;3.80;2.90;;;17.50;59.70;;;;;;5022972;28;20429;-82
2023/11/10 05:51:14;;;;;;;4.20;2.97;;;17.50;60.00;;;;;;5029348;28;20440;-80
2023/11/10 05:53:44;;;;;;;4.13;3.07;;;17.50;60.00;;;;;;5024444;28;20448;-85
2023/11/10 05:56:12;;;;;;;3.03;2.77;;;17.50;59.90;;;;;;5022516;28;20495;-82
2023/11/10 05:58:41;;;;;;;2.83;2.63;;;17.50;59.80;;;;;;5022021;28;20561;-82
2023/11/10 06:01:10;;;;;;;3.83;2.60;;;17.50;59.60;;;;;;5016479;28;20459;-83
2023/11/10 06:03:39;;;;;;;2.80;2.60;;;17.40;60.50;;;;;;5023286;28;20455;-83
2023/11/10 06:06:08;;;;;;;4.40;3.13;;;17.40;59.80;;;;;;5022595;28;20448;-84
2023/11/10 06:08:37;;;;;;;3.30;2.90;;;17.40;59.80;;;;;;5024438;28;20452;-82
2023/11/10 06:11:06;;;;;;;2.70;2.50;;;17.40;59.80;;;;;;5022843;28;20452;-80
2023/11/10 06:13:34;;;;;;;4.63;2.90;;;17.40;59.70;;;;;;5023323;28;20432;-80
2023/11/10 06:16:03;;;;;;;3.20;2.87;;;17.40;59.80;;;;;;5022343;28;20476;-81
2023/11/10 06:18:32;;;;;;;5.80;2.57;;;17.50;59.80;;;;;;5014367;28;20453;-80
2023/11/10 06:21:00;;;;;;;2.77;2.50;;;17.40;59.70;;;;;;5006613;28;20452;-84
2023/11/10 06:23:29;;;;;;;3.00;2.63;;;17.50;59.60;;;;;;5025063;28;20432;-80
2023/11/10 06:25:57;;;;;;;3.40;3.10;;;17.40;59.60;;;;;;5025627;28;20444;-81
2023/11/10 06:28:27;;;;;;;3.67;2.60;;;17.40;59.70;;;;;;5024014;28;20456;-80
2023/11/10 06:30:57;;;;;;;2.40;2.20;;;17.40;59.70;;;;;;5017471;28;20448;-81
2023/11/10 06:33:26;;;;;;;2.80;2.53;;;17.40;59.70;;;;;;5022845;28;20446;-82
2023/11/10 06:35:54;;;;;;;2.87;2.60;;;17.40;59.60;;;;;;5025767;28;20480;-81
2023/11/10 06:38:22;;;;;;;4.20;2.30;;;17.40;59.70;;;;;;5029894;28;20444;-81
2023/11/10 06:40:51;;;;;;;5.47;3.00;;;17.40;59.80;;;;;;5029528;28;20432;-81
2023/11/10 06:43:19;;;;;;;3.00;2.33;;;17.40;59.70;;;;;;5036301;28;20475;-82
2023/11/10 06:45:49;;;;;;;4.07;2.87;;;17.40;59.80;;;;;;5037937;28;20447;-82
2023/11/10 06:48:22;;;;;;;3.07;2.43;;;17.40;59.60;;;;;;5030891;28;20453;-82
2023/11/10 06:50:52;;;;;;;2.97;2.57;;;17.40;59.70;;;;;;5014106;28;20446;-83
2023/11/10 06:53:20;;;;;;;3.97;2.40;;;17.40;59.80;;;;;;5035602;28;20439;-83
2023/11/10 06:55:48;;;;;;;2.47;2.27;;;17.40;59.80;;;;;;5024425;28;20472;-84
2023/11/10 06:58:17;;;;;;;2.30;2.10;;;17.40;59.70;;;;;;5021921;28;20450;-82
2023/11/10 07:00:46;;;;;;;2.50;2.23;;;17.40;59.80;;;;;;5016768;28;20461;-85
2023/11/10 07:03:18;;;;;;;5.23;2.97;;;17.40;59.60;;;;;;5029971;28;20458;-82
2023/11/10 07:05:46;;;;;;;4.93;2.60;;;17.40;59.90;;;;;;5021022;28;20451;-82
2023/11/10 07:08:14;;;;;;;2.97;2.37;;;17.40;59.80;;;;;;5015801;28;20473;-82
2023/11/10 07:10:44;;;;;;;4.30;2.30;;;17.40;59.90;;;;;;5021461;28;20483;-82
2023/11/10 07:13:14;;;;;;;2.30;2.10;;;17.40;59.90;;;;;;5033466;28;20441;-82
2023/11/10 07:15:42;;;;;;;3.70;2.40;;;17.40;59.80;;;;;;5026497;28;20469;-82
2023/11/10 07:18:11;;;;;;;3.03;2.63;;;17.50;59.90;;;;;;5019101;28;20469;-82
2023/11/10 07:20:44;;;;;;;2.30;2.10;;;17.40;59.70;;;;;;5027117;28;20502;-82
2023/11/10 07:23:13;;;;;;;2.40;2.20;;;17.50;59.90;;;;;;5010028;28;20441;-83
2023/11/10 07:25:42;;;;;;;2.87;1.93;;;17.50;59.90;;;;;;5012533;28;20469;-82
2023/11/10 07:28:10;;;;;;;2.37;2.27;;;17.50;59.80;;;;;;5015613;28;20475;-82
2023/11/10 07:30:40;;;;;;;2.90;2.33;;;17.50;59.70;;;;;;5010839;28;20466;-82
2023/11/10 07:33:08;;;;;;;2.43;2.13;;;17.50;59.70;;;;;;5014111;28;20440;-82
2023/11/10 07:35:37;;;;;;;4.33;2.17;;;17.50;59.80;;;;;;5029106;28;20515;-82
2023/11/10 07:38:07;;;;;;;3.03;2.53;;;17.50;59.70;;;;;;5023944;28;20515;-81
2023/11/10 07:40:36;;;;;;;3.60;2.30;;;17.50;59.60;;;;;;5018409;28;20477;-82
2023/11/10 07:43:04;;;;;;;2.03;1.93;;;17.50;59.80;;;;;;5018412;28;20444;-81
2023/11/10 07:45:34;;;;;;;3.47;2.03;;;17.50;59.60;;;;;;5019446;28;20452;-80
2023/11/10 07:48:05;;;;;;;2.90;2.00;;;17.50;59.60;;;;;;5019127;28;20473;-84
2023/11/10 07:50:33;;;;;;;3.93;2.10;;;17.50;59.70;;;;;;5018790;28;20457;-84
2023/11/10 07:53:05;;;;;;;2.23;2.07;;;17.60;59.60;;;;;;5017222;28;20429;-82
2023/11/10 07:55:51;;;;;;;2.93;2.30;;;17.60;59.80;;;;;;5032874;28;20542;-84
2023/11/10 07:58:22;;;;;;;2.13;1.90;;;17.60;59.80;;;;;;5014860;28;20450;-83
2023/11/10 08:00:54;;;;;;;3.93;2.40;;;17.60;59.60;;;;;;5022389;28;20453;-84
2023/11/10 08:03:23;;;;;;;4.20;2.03;;;17.60;59.50;;;;;;5019573;28;20445;-81
2023/11/10 08:05:53;;;;;;;6.47;1.90;;;17.60;59.60;;;;;;5023858;28;20453;-80
2023/11/10 08:08:21;;;;;;;2.37;1.80;;;17.70;59.60;;;;;;5019665;28;20437;-79
2023/11/10 08:10:51;;;;;;;1.83;1.73;;;17.70;59.60;;;;;;5017553;28;20814;-81
2023/11/10 08:13:19;;;;;;;6.43;1.90;;;17.70;59.50;;;;;;5025996;28;20448;-84
2023/11/10 08:15:47;;;;;;;2.00;1.90;;;17.70;59.60;;;;;;5031178;28;20483;-80
2023/11/10 08:18:16;;;;;;;1.93;1.83;;;17.70;59.50;;;;;;5028178;28;20498;-80
2023/11/10 08:20:49;;;;;;;3.87;2.20;;;17.80;59.50;;;;;;5021857;28;21001;-81
2023/11/10 08:23:18;;;;;;;2.23;2.00;;;17.80;59.40;;;;;;5015809;28;20429;-81
2023/11/10 08:25:49;;;;;;;1.97;1.87;;;17.80;59.40;;;;;;5017803;28;20444;-81
2023/11/10 08:28:19;;;;;;;4.20;1.93;;;17.80;59.50;;;;;;5014476;28;20904;-81
2023/11/10 08:30:49;;;;;;;1.87;1.70;;;17.80;59.40;;;;;;5020923;28;20440;-80
2023/11/10 08:33:18;;;;;;;3.20;1.63;;;17.90;59.20;;;;;;5019155;28;20437;-81
2023/11/10 08:35:46;;;;;;;2.10;2.00;;;17.90;59.20;;;;;;5012466;28;20477;-80
2023/11/10 08:38:14;;;;;;;3.37;1.73;;;18.00;59.20;;;;;;5020535;28;20468;-80
2023/11/10 08:40:44;;;;;;;1.60;1.50;;;18.00;59.20;;;;;;5015822;28;20528;-82
2023/11/10 08:43:12;;;;;;;2.57;1.90;;;18.00;59.60;;;;;;5017763;28;20441;-83
2023/11/10 08:45:42;;;;;;;2.80;2.10;;;18.00;59.10;;;;;;5019939;28;20421;-81
2023/11/10 08:48:10;;;;;;;6.00;2.00;;;18.00;59.00;;;;;;5030308;28;20557;-82
2023/11/10 08:50:39;;;;;;;2.10;1.90;;;18.00;59.10;;;;;;5023310;28;20448;-80
2023/11/10 08:53:09;;;;;;;1.80;1.70;;;18.00;58.80;;;;;;5016308;28;20444;-83
2023/11/10 08:55:37;;;;;;;2.77;1.83;;;18.00;59.20;;;;;;5028789;28;20453;-81
2023/11/10 08:58:05;;;;;;;4.77;1.90;;;18.10;59.10;;;;;;5013357;28;20469;-79
2023/11/10 09:00:33;;;;;;;3.20;1.57;;;18.10;59.10;;;;;;5017429;28;20448;-79
2023/11/10 09:03:03;;;;;;;2.03;1.50;;;18.10;59.00;;;;;;5023312;28;20468;-80
2023/11/10 09:05:31;;;;;;;1.87;1.73;;;18.20;59.00;;;;;;5018399;28;20437;-81
2023/11/10 09:07:59;;;;;;;1.60;1.50;;;18.20;58.90;;;;;;5033761;28;20492;-81
2023/11/10 09:10:28;;;;;;;1.73;1.63;;;18.30;58.80;;;;;;5024374;28;20448;-80
2023/11/10 09:12:56;;;;;;;3.63;1.90;;;18.30;58.70;;;;;;5026506;28;20441;-82
2023/11/10 09:15:24;;;;;;;3.13;2.10;;;18.30;58.80;;;;;;5032984;28;20440;-81
2023/11/10 09:17:53;;;;;;;2.10;1.80;;;18.30;58.60;;;;;;5023036;28;20457;-81
2023/11/10 09:20:23;;;;;;;2.20;2.10;;;18.30;58.50;;;;;;5023827;28;20441;-80
2023/11/10 09:22:51;;;;;;;2.00;1.60;;;18.40;58.70;;;;;;5016237;28;20441;-80
2023/11/10 09:29:50;;;;;;;2.60;2.07;;;18.40;58.70;;;;;;5012386;28;20452;-81
2023/11/10 09:33:10;;;;;;;2.27;1.80;;;18.50;58.80;;;;;;4934921;29;20458;-80
2023/11/10 09:36:32;;;;;;;3.90;1.90;;;18.50;58.50;;;;;;4953970;29;20496;-81
2023/11/10 09:39:32;;;;;;;1.90;1.80;;;18.50;58.60;;;;;;4955964;28;20458;-82
2023/11/10 09:42:42;;;;;;;1.80;1.70;;;18.60;58.50;;;;;;4958152;29;20461;-81
2023/11/10 09:56:22;;;;;;;3.23;1.47;;;18.70;58.20;;;;;;4742232;29;20489;-82
2023/11/10 10:14:15;;;;;;;1.90;1.80;;;19.20;58.10;;;;;;4755122;29;20474;-81
2023/11/10 10:16:52;;;;;;;1.87;1.77;;;19.20;58.50;;;;;;4844221;29;20490;-79
2023/11/10 10:19:23;;;;;;;1.73;1.63;;;19.20;57.70;;;;;;4886462;29;20497;-80
2023/11/10 10:21:52;;;;;;;2.67;1.90;;;19.20;57.70;;;;;;4984090;28;20446;-80
2023/11/10 10:24:20;;;;;;;3.87;1.80;;;19.20;57.60;;;;;;4977218;28;20438;-77
2023/11/10 10:26:48;;;;;;;2.40;1.80;;;19.20;57.70;;;;;;4978129;28;20549;-77
2023/11/10 10:29:18;;;;;;;2.30;1.80;;;19.20;57.80;;;;;;4979027;28;20442;-80
2023/11/10 10:31:46;;;;;;;2.83;1.73;;;19.20;57.80;;;;;;4979711;28;20446;-80
2023/11/10 10:34:15;;;;;;;4.03;1.87;;;19.20;57.90;;;;;;4976203;28;20446;-80
2023/11/10 10:36:44;;;;;;;1.73;1.63;;;19.10;58.00;;;;;;4970280;28;20531;-80
2023/11/10 10:39:15;;;;;;;2.10;1.90;;;19.20;58.00;;;;;;4977267;28;20443;-81
2023/11/10 10:41:43;;;;;;;3.10;1.87;;;19.20;58.10;;;;;;4966791;28;20451;-79
2023/11/10 10:44:12;;;;;;;3.83;1.73;;;19.40;58.20;;;;;;4979256;28;20442;-79
2023/11/10 10:46:42;;;;;;;2.20;1.97;;;19.40;57.90;;;;;;4994766;28;20496;-80
2023/11/10 10:49:12;;;;;;;2.80;1.70;;;19.50;57.60;;;;;;4991132;28;20442;-80
2023/11/10 10:51:41;;;;;;;2.63;1.80;;;19.40;57.60;;;;;;4993753;28;20446;-81
2023/11/10 10:54:09;;;;;;;4.23;2.50;;;19.50;57.70;;;;;;4994218;28;20449;-80
2023/11/10 10:56:39;;;;;;;2.53;1.77;;;19.40;57.70;;;;;;4992599;28;20466;-82
2023/11/10 10:59:12;;;;;;;2.40;2.00;;;19.50;57.70;;;;;;4993320;28;20438;-82
2023/11/10 11:01:42;;;;;;;2.80;2.20;;;19.50;57.80;;;;;;4994708;28;20434;-82
2023/11/10 11:04:24;;;;;;;1.90;1.80;;;19.50;57.70;;;;;;4993221;28;20489;-82
2023/11/10 11:07:01;;;;;;;2.40;1.80;;;19.50;57.80;;;;;;4994350;28;20538;-82
2023/11/10 11:09:42;;;;;;;2.90;1.90;;;19.60;57.90;;;;;;4991787;28;20435;-81
2023/11/10 11:12:32;;;;;;;3.03;1.80;;;19.70;58.10;;;;;;4985520;28;20496;-81
2023/11/10 11:15:03;;;;;;;2.40;1.70;;;20.00;58.00;;;;;;4993364;28;20454;-81
2023/11/10 11:18:09;;;;;;;2.37;1.87;;;20.20;57.70;;;;;;4996547;28;20470;-80
2023/11/10 11:20:38;;;;;;;1.50;1.40;;;20.40;57.10;;;;;;4942177;28;20446;-81
2023/11/10 11:23:09;;;;;;;1.90;1.80;;;20.30;56.70;;;;;;4986247;28;20453;-79
2023/11/10 11:25:37;;;;;;;4.53;2.07;;;20.30;56.50;;;;;;4968718;28;20450;-79
2023/11/10 11:28:06;;;;;;;3.70;1.60;;;20.10;56.60;;;;;;4981472;28;20470;-80
2023/11/10 11:30:35;;;;;;;2.30;1.80;;;20.00;56.60;;;;;;4979606;28;20537;-77
2023/11/10 11:33:09;;;;;;;4.30;1.80;;;20.00;56.80;;;;;;4990112;28;20450;-82
2023/11/10 11:35:38;;;;;;;2.90;1.57;;;19.90;56.90;;;;;;4989684;28;20487;-82
2023/11/10 11:38:07;;;;;;;6.73;2.33;;;19.90;57.00;;;;;;4988897;28;20521;-81
2023/11/10 11:40:35;;;;;;;3.13;2.30;;;19.90;57.10;;;;;;4988187;28;20466;-81
2023/11/10 11:43:09;;;;;;;2.50;1.83;;;19.90;57.00;;;;;;4994333;28;20473;-82
2023/11/10 11:45:39;;;;;;;2.63;1.90;;;19.90;57.20;;;;;;4988646;28;20461;-82
2023/11/10 11:48:09;;;;;;;1.70;1.60;;;19.90;57.20;;;;;;4990881;28;20489;-82
2023/11/10 11:50:38;;;;;;;3.10;1.90;;;19.80;57.10;;;;;;4977042;28;20450;-81
2023/11/10 11:53:09;;;;;;;2.63;1.67;;;19.70;57.20;;;;;;4979220;28;20458;-80
2023/11/10 11:55:37;;;;;;;2.00;1.80;;;19.70;57.40;;;;;;4979338;28;20514;-81
2023/11/10 11:58:06;;;;;;;1.73;1.63;;;19.70;57.40;;;;;;4979449;28;20482;-81
2023/11/10 12:00:37;;;;;;;1.73;1.60;;;19.70;57.40;;;;;;4981669;28;20480;-81
2023/11/10 12:03:07;;;;;;;3.50;1.80;;;19.70;57.40;;;;;;4978151;28;20454;-81
2023/11/10 12:05:37;;;;;;;2.80;1.60;;;19.80;57.40;;;;;;4984970;28;20476;-81
2023/11/10 12:08:06;;;;;;;2.60;1.47;;;19.80;57.30;;;;;;4985232;28;20466;-82
2023/11/10 12:10:34;;;;;;;3.30;1.80;;;19.80;57.00;;;;;;4988440;28;20473;-81
2023/11/10 12:13:02;;;;;;;4.37;1.97;;;19.90;57.10;;;;;;4988271;28;20513;-81
2023/11/10 12:15:31;;;;;;;1.60;1.40;;;19.80;57.00;;;;;;4990602;28;20517;-82
2023/11/10 12:17:59;;;;;;;3.00;1.70;;;19.80;57.00;;;;;;4991204;28;20480;-82
2023/11/10 12:20:30;;;;;;;4.00;2.07;;;19.70;56.90;;;;;;4990607;28;20461;-79
2023/11/10 12:23:00;;;;;;;3.07;1.90;;;19.70;57.00;;;;;;4988491;28;20474;-79
2023/11/10 12:25:29;;;;;;;2.00;1.70;;;19.60;57.10;;;;;;4986685;28;20451;-80
2023/11/10 12:27:57;;;;;;;1.90;1.80;;;19.60;57.00;;;;;;4987373;28;20450;-78
2023/11/10 12:30:25;;;;;;;3.63;1.77;;;19.50;57.10;;;;;;4987056;28;20489;-81
2023/11/10 12:32:53;;;;;;;2.67;1.70;;;19.50;57.10;;;;;;4986387;28;20438;-81
2023/11/10 12:35:21;;;;;;;1.90;1.70;;;19.50;57.10;;;;;;4987754;28;20449;-79
2023/11/10 12:37:52;;;;;;;4.50;1.97;;;19.50;57.20;;;;;;4983892;28;20474;-79
2023/11/10 12:40:22;;;;;;;7.20;1.40;;;19.50;57.30;;;;;;4986476;28;20453;-78
2023/11/10 12:42:50;;;;;;;5.43;1.70;;;19.50;57.20;;;;;;4983937;28;20447;-79
2023/11/10 12:45:19;;;;;;;2.60;2.10;;;19.50;57.00;;;;;;4985932;28;20453;-79
2023/11/10 12:47:49;;;;;;;2.10;1.73;;;19.60;57.10;;;;;;4986590;28;20469;-81
2023/11/10 12:50:30;;;;;;;2.03;1.80;;;19.50;56.90;;;;;;4983632;28;20458;-78
2023/11/10 12:52:58;;;;;;;2.07;1.97;;;19.50;56.90;;;;;;4989388;28;20481;-79
2023/11/10 12:55:28;;;;;;;2.77;1.93;;;19.50;57.00;;;;;;4989332;28;20430;-79
2023/11/10 12:57:57;;;;;;;2.30;2.03;;;19.50;57.10;;;;;;4989952;28;20501;-79
2023/11/10 13:00:26;;;;;;;3.53;1.93;;;19.40;56.80;;;;;;4989985;28;20434;-79
2023/11/10 13:02:54;;;;;;;4.63;2.10;;;19.30;56.90;;;;;;4985950;28;20482;-79
2023/11/10 13:05:24;;;;;;;4.27;2.23;;;19.30;57.00;;;;;;4991217;28;20449;-80
2023/11/10 13:07:52;;;;;;;4.00;1.87;;;19.30;57.00;;;;;;4981687;28;20466;-79
2023/11/10 13:10:21;;;;;;;2.67;2.40;;;19.40;57.30;;;;;;4970092;28;20456;-79
2023/11/10 13:12:52;;;;;;;3.83;2.40;;;19.50;57.20;;;;;;4983908;28;20445;-79
2023/11/10 13:15:21;;;;;;;3.00;2.20;;;19.60;57.10;;;;;;4984417;28;20457;-79
2023/11/10 13:17:50;;;;;;;4.37;2.40;;;19.60;57.10;;;;;;4987590;28;20470;-79
2023/11/10 13:20:21;;;;;;;2.37;1.87;;;19.70;56.80;;;;;;4990334;28;20505;-80
2023/11/10 13:22:50;;;;;;;2.10;1.90;;;19.70;56.90;;;;;;4992261;28;20507;-81
2023/11/10 13:25:18;;;;;;;2.97;2.40;;;19.60;56.70;;;;;;4989825;28;20434;-79
2023/11/10 13:27:46;;;;;;;5.00;2.20;;;19.60;56.70;;;;;;4989786;28;20455;-80
2023/11/10 13:30:18;;;;;;;2.20;1.97;;;19.60;56.70;;;;;;4992671;28;20449;-80
2023/11/10 13:32:47;;;;;;;2.70;2.10;;;19.50;56.60;;;;;;4987066;28;20443;-80
2023/11/10 13:35:23;;;;;;;2.53;2.33;;;19.50;56.60;;;;;;5000031;28;20442;-80
2023/11/10 13:37:51;;;;;;;3.10;2.37;;;19.40;56.50;;;;;;4989743;28;20473;-80
2023/11/10 13:40:19;;;;;;;7.10;2.50;;;19.40;56.50;;;;;;4991558;28;20438;-80
2023/11/10 13:42:48;;;;;;;4.63;2.47;;;19.40;56.70;;;;;;4983792;28;20476;-79
2023/11/10 13:45:17;;;;;;;2.90;2.20;;;19.30;56.60;;;;;;4982806;28;20430;-79
2023/11/10 13:47:46;;;;;;;2.27;2.10;;;19.20;56.70;;;;;;4975309;28;20462;-80
2023/11/10 13:50:15;;;;;;;3.67;2.37;;;19.20;56.60;;;;;;4979488;28;20443;-80
2023/11/10 13:52:43;;;;;;;2.73;2.53;;;19.20;57.30;;;;;;4987009;28;20473;-81
2023/11/10 13:55:12;;;;;;;6.50;2.30;;;19.10;56.90;;;;;;4990574;28;20429;-80
2023/11/10 13:57:42;;;;;;;3.27;2.57;;;19.10;57.00;;;;;;4985653;28;20472;-82
2023/11/10 14:00:13;;;;;;;4.57;2.57;;;19.00;56.80;;;;;;4990065;28;20460;-81
2023/11/10 14:02:45;;;;;;;3.50;2.50;;;19.00;57.20;;;;;;4986531;28;20462;-81
2023/11/10 14:05:17;;;;;;;5.47;2.63;;;19.00;57.10;;;;;;4990221;28;20473;-80
2023/11/10 14:07:45;;;;;;;3.20;2.80;;;19.00;57.50;;;;;;4989485;28;20481;-79
2023/11/10 14:10:14;;;;;;;6.00;2.70;;;19.00;57.30;;;;;;4986130;28;20505;-80
2023/11/10 14:12:43;;;;;;;5.60;3.20;;;18.90;57.20;;;;;;4985217;28;20453;-79
2023/11/10 14:15:15;;;;;;;3.73;2.67;;;18.80;57.40;;;;;;4984150;28;20441;-79
2023/11/10 14:17:47;;;;;;;5.30;2.57;;;18.90;57.60;;;;;;4981473;28;20489;-80
2023/11/10 14:20:16;;;;;;;2.93;2.73;;;18.80;57.30;;;;;;4979170;28;20454;-79
2023/11/10 14:22:51;;;;;;;8.40;2.87;;;18.80;57.60;;;;;;4983750;28;20457;-80
2023/11/10 14:25:21;;;;;;;4.90;3.30;;;18.80;57.60;;;;;;4973963;28;20981;-80
2023/11/10 14:27:53;;;;;;;4.30;3.00;;;18.70;57.50;;;;;;4977939;28;20485;-81
2023/11/10 14:30:21;;;;;;;3.83;3.03;;;18.70;57.90;;;;;;4969465;28;20445;-80
2023/11/10 14:32:56;;;;;;;3.33;3.03;;;18.70;57.60;;;;;;4976653;28;20460;-78
2023/11/10 14:35:27;;;;;;;3.93;2.90;;;18.70;57.50;;;;;;4972791;28;20450;-80
2023/11/10 14:37:58;;;;;;;5.53;3.20;;;18.70;58.00;;;;;;4985565;28;20461;-81
2023/11/10 14:40:31;;;;;;;5.70;3.40;;;18.70;57.70;;;;;;4984045;28;20501;-78
2023/11/10 14:43:02;;;;;;;3.67;3.37;;;18.70;57.80;;;;;;4980986;28;20442;-80
2023/11/10 14:45:31;;;;;;;5.03;3.10;;;18.60;57.70;;;;;;4990346;28;21196;-80
2023/11/10 14:48:01;;;;;;;4.73;3.07;;;18.60;57.60;;;;;;4987872;28;20482;-80
2023/11/10 14:50:36;;;;;;;3.07;2.83;;;18.60;57.80;;;;;;4985479;28;20430;-80
2023/11/10 14:53:08;;;;;;;4.20;3.40;;;18.60;57.80;;;;;;4989368;28;20477;-80
2023/11/10 14:55:36;;;;;;;8.70;3.40;;;18.50;57.70;;;;;;4991861;28;20478;-79
2023/11/10 14:58:05;;;;;;;4.70;3.70;;;18.50;57.50;;;;;;4992180;28;20484;-80
2023/11/10 15:00:34;;;;;;;4.10;3.17;;;18.50;57.90;;;;;;4991307;28;20478;-80
2023/11/10 15:03:04;;;;;;;4.10;2.80;;;18.40;57.80;;;;;;4994108;28;20546;-79
2023/11/10 15:05:34;;;;;;;3.73;3.17;;;18.40;57.80;;;;;;4991784;28;20521;-80
2023/11/10 15:08:04;;;;;;;9.80;3.80;;;18.40;57.90;;;;;;4991364;28;20466;-79
2023/11/10 15:10:35;;;;;;;5.80;3.17;;;18.40;57.70;;;;;;4990253;28;20435;-79
2023/11/10 15:13:08;;;;;;;5.13;3.70;;;18.40;57.70;;;;;;4993812;28;20442;-80
2023/11/10 15:15:37;;;;;;;4.93;3.47;;;18.30;58.00;;;;;;4990415;28;20450;-80
2023/11/10 15:18:09;;;;;;;4.03;3.60;;;18.30;58.00;;;;;;5000577;28;20526;-80
2023/11/10 15:20:38;;;;;;;3.83;3.40;;;18.30;57.90;;;;;;4993226;28;20554;-80
2023/11/10 15:23:07;;;;;;;5.07;3.40;;;18.40;57.80;;;;;;4993918;28;20450;-80